Terminal Aerodrome Forecast
Issued by NWS

Home | Current Version | Previous Version | Text Only | Print | Product List | Glossary On
Versions: 1 2 3 4 5 6 7 8 9 10 11 12 13 14 15
000
FTUS45 KABQ 231737
TAFFMN
TAF
KFMN 231737Z 2318/2418 14011KT P6SM SCT060
     FM232100 25015G25KT P6SM VCSH BKN060
     FM240200 26011KT 4SM -SN OVC015
      TEMPO 2409/2413 2SM -SN OVC007
     FM241500 27011KT P6SM VCSH OVC025=

USA.gov is the U.S. government's official web portal to all federal, state and local government web resources and services.